X  Cerrar Datos meteorológicos de aviación METAR     KAST Astoria Regional Airport
Temperatura
39°F Temperatura
32°F Punto de rocío
75% Humedad



Viento
16 MPH
26 KM/H
7 M/S
14 NUDO



200°
SSO
Condiciones actuales

Lluvia Lluvia
Presión 1018.62 (hPa) - 30.08 (inHg)
Visibilidad 2.5 (milla) - 4 (km)
Aeropuerto
Código de aeropuerto KAST

localidad: Astoria Regional Airport
Distancia: 20 (mi)

Metar:
KAST 071819Z AUTO 20014G26KT 2 1/2SM RA FEW029 BKN038 OVC070 04/00 A3008 RMK AO2 PK WND 25027/1808 VIS 1 1/2V5 P0014 T00390000

Hora: 03-07-2021 10:19 PST